sensor_id;sensor_type;location;lat;lon;timestamp;P1;durP1;ratioP1;P2;durP2;ratioP2
38615;SDS011;24370;51.986;4.666;2023-08-17T00:01:00;1.55;;;1.05;;
38615;SDS011;24370;51.986;4.666;2023-08-17T00:03:26;0.77;;;0.77;;
38615;SDS011;24370;51.986;4.666;2023-08-17T00:05:51;2.10;;;0.80;;
38615;SDS011;24370;51.986;4.666;2023-08-17T00:08:16;0.95;;;0.70;;
38615;SDS011;24370;51.986;4.666;2023-08-17T00:10:42;1.80;;;1.05;;
38615;SDS011;24370;51.986;4.666;2023-08-17T00:13:07;1.02;;;0.85;;
38615;SDS011;24370;51.986;4.666;2023-08-17T00:15:33;2.92;;;1.13;;
38615;SDS011;24370;51.986;4.666;2023-08-17T00:17:58;1.33;;;1.20;;
38615;SDS011;24370;51.986;4.666;2023-08-17T00:20:24;2.83;;;0.98;;
38615;SDS011;24370;51.986;4.666;2023-08-17T00:22:49;2.50;;;1.00;;
38615;SDS011;24370;51.986;4.666;2023-08-17T00:25:15;2.40;;;0.90;;
38615;SDS011;24370;51.986;4.666;2023-08-17T00:27:40;2.13;;;0.98;;
38615;SDS011;24370;51.986;4.666;2023-08-17T00:30:05;4.05;;;1.00;;
38615;SDS011;24370;51.986;4.666;2023-08-17T00:32:31;0.80;;;0.80;;
38615;SDS011;24370;51.986;4.666;2023-08-17T00:34:57;2.40;;;1.05;;
38615;SDS011;24370;51.986;4.666;2023-08-17T00:37:22;1.45;;;1.00;;
38615;SDS011;24370;51.986;4.666;2023-08-17T00:39:47;1.40;;;0.80;;
38615;SDS011;24370;51.986;4.666;2023-08-17T00:42:13;3.63;;;0.90;;
38615;SDS011;24370;51.986;4.666;2023-08-17T00:44:38;1.13;;;0.70;;
38615;SDS011;24370;51.986;4.666;2023-08-17T00:47:04;2.70;;;0.80;;
38615;SDS011;24370;51.986;4.666;2023-08-17T00:49:29;2.13;;;0.73;;
38615;SDS011;24370;51.986;4.666;2023-08-17T00:51:56;2.08;;;0.90;;
38615;SDS011;24370;51.986;4.666;2023-08-17T00:54:23;4.85;;;1.17;;
38615;SDS011;24370;51.986;4.666;2023-08-17T00:56:50;1.25;;;0.98;;
38615;SDS011;24370;51.986;4.666;2023-08-17T00:59:17;3.90;;;1.05;;
38615;SDS011;24370;51.986;4.666;2023-08-17T01:01:42;2.28;;;1.30;;
38615;SDS011;24370;51.986;4.666;2023-08-17T01:04:08;2.58;;;0.90;;
38615;SDS011;24370;51.986;4.666;2023-08-17T01:06:33;4.90;;;1.08;;
38615;SDS011;24370;51.986;4.666;2023-08-17T01:09:02;1.98;;;1.15;;
38615;SDS011;24370;51.986;4.666;2023-08-17T01:13:55;1.45;;;1.20;;
38615;SDS011;24370;51.986;4.666;2023-08-17T01:16:27;1.00;;;0.90;;
38615;SDS011;24370;51.986;4.666;2023-08-17T01:18:58;0.90;;;0.90;;
38615;SDS011;24370;51.986;4.666;2023-08-17T01:21:25;3.10;;;1.30;;
38615;SDS011;24370;51.986;4.666;2023-08-17T01:24:02;2.75;;;1.00;;
38615;SDS011;24370;51.986;4.666;2023-08-17T01:26:28;1.23;;;0.80;;
38615;SDS011;24370;51.986;4.666;2023-08-17T01:28:54;0.90;;;0.75;;
38615;SDS011;24370;51.986;4.666;2023-08-17T01:31:24;1.35;;;0.75;;
38615;SDS011;24370;51.986;4.666;2023-08-17T01:33:57;4.05;;;1.25;;
38615;SDS011;24370;51.986;4.666;2023-08-17T01:36:25;4.05;;;1.10;;
38615;SDS011;24370;51.986;4.666;2023-08-17T01:38:55;1.00;;;0.80;;
38615;SDS011;24370;51.986;4.666;2023-08-17T01:41:22;2.13;;;1.08;;
38615;SDS011;24370;51.986;4.666;2023-08-17T01:43:48;1.70;;;0.70;;
38615;SDS011;24370;51.986;4.666;2023-08-17T01:46:15;0.80;;;0.80;;
38615;SDS011;24370;51.986;4.666;2023-08-17T01:48:42;3.45;;;1.05;;
38615;SDS011;24370;51.986;4.666;2023-08-17T01:51:08;3.17;;;1.17;;
38615;SDS011;24370;51.986;4.666;2023-08-17T01:53:34;1.35;;;1.08;;
38615;SDS011;24370;51.986;4.666;2023-08-17T01:56:00;1.17;;;0.80;;
38615;SDS011;24370;51.986;4.666;2023-08-17T01:58:26;2.72;;;0.93;;
38615;SDS011;24370;51.986;4.666;2023-08-17T02:00:51;2.08;;;1.73;;
38615;SDS011;24370;51.986;4.666;2023-08-17T02:03:16;4.38;;;1.20;;
38615;SDS011;24370;51.986;4.666;2023-08-17T02:05:45;1.90;;;1.00;;
38615;SDS011;24370;51.986;4.666;2023-08-17T02:08:11;1.02;;;0.90;;
38615;SDS011;24370;51.986;4.666;2023-08-17T02:10:37;2.95;;;0.85;;
38615;SDS011;24370;51.986;4.666;2023-08-17T02:13:02;1.90;;;1.00;;
38615;SDS011;24370;51.986;4.666;2023-08-17T02:15:28;4.20;;;1.10;;
38615;SDS011;24370;51.986;4.666;2023-08-17T02:17:54;4.38;;;1.17;;
38615;SDS011;24370;51.986;4.666;2023-08-17T02:20:19;1.00;;;0.93;;
38615;SDS011;24370;51.986;4.666;2023-08-17T02:22:45;5.22;;;1.10;;
38615;SDS011;24370;51.986;4.666;2023-08-17T02:25:10;3.80;;;1.15;;
38615;SDS011;24370;51.986;4.666;2023-08-17T02:27:36;1.55;;;1.20;;
38615;SDS011;24370;51.986;4.666;2023-08-17T02:30:02;3.08;;;1.30;;
38615;SDS011;24370;51.986;4.666;2023-08-17T02:32:28;2.80;;;1.20;;
38615;SDS011;24370;51.986;4.666;2023-08-17T02:34:54;3.55;;;1.50;;
38615;SDS011;24370;51.986;4.666;2023-08-17T02:37:19;1.08;;;0.98;;
38615;SDS011;24370;51.986;4.666;2023-08-17T02:39:44;2.47;;;1.00;;
38615;SDS011;24370;51.986;4.666;2023-08-17T02:42:10;2.63;;;0.88;;
38615;SDS011;24370;51.986;4.666;2023-08-17T02:44:35;3.15;;;1.05;;
38615;SDS011;24370;51.986;4.666;2023-08-17T02:47:01;1.70;;;0.80;;
38615;SDS011;24370;51.986;4.666;2023-08-17T02:49:26;1.80;;;1.10;;
38615;SDS011;24370;51.986;4.666;2023-08-17T02:51:52;1.10;;;0.90;;
38615;SDS011;24370;51.986;4.666;2023-08-17T02:54:17;2.78;;;1.23;;
38615;SDS011;24370;51.986;4.666;2023-08-17T02:56:42;1.58;;;1.30;;
38615;SDS011;24370;51.986;4.666;2023-08-17T02:59:08;1.48;;;1.00;;
38615;SDS011;24370;51.986;4.666;2023-08-17T03:01:33;4.80;;;1.40;;
38615;SDS011;24370;51.986;4.666;2023-08-17T03:03:58;2.17;;;0.85;;
38615;SDS011;24370;51.986;4.666;2023-08-17T03:06:24;1.48;;;0.90;;
38615;SDS011;24370;51.986;4.666;2023-08-17T03:08:49;1.48;;;0.98;;
38615;SDS011;24370;51.986;4.666;2023-08-17T03:11:17;1.05;;;0.93;;
38615;SDS011;24370;51.986;4.666;2023-08-17T03:13:42;3.30;;;1.08;;
38615;SDS011;24370;51.986;4.666;2023-08-17T03:16:08;4.03;;;1.50;;
38615;SDS011;24370;51.986;4.666;2023-08-17T03:18:33;3.40;;;1.38;;
38615;SDS011;24370;51.986;4.666;2023-08-17T03:20:59;1.83;;;1.30;;
38615;SDS011;24370;51.986;4.666;2023-08-17T03:23:24;3.05;;;1.20;;
38615;SDS011;24370;51.986;4.666;2023-08-17T03:25:53;4.60;;;1.25;;
38615;SDS011;24370;51.986;4.666;2023-08-17T03:28:19;4.30;;;1.20;;
38615;SDS011;24370;51.986;4.666;2023-08-17T03:30:44;3.22;;;1.20;;
38615;SDS011;24370;51.986;4.666;2023-08-17T03:33:10;1.98;;;1.48;;
38615;SDS011;24370;51.986;4.666;2023-08-17T03:35:35;3.10;;;1.50;;
38615;SDS011;24370;51.986;4.666;2023-08-17T03:38:00;7.13;;;1.58;;
38615;SDS011;24370;51.986;4.666;2023-08-17T03:40:26;4.68;;;1.40;;
38615;SDS011;24370;51.986;4.666;2023-08-17T03:42:51;2.90;;;1.23;;
38615;SDS011;24370;51.986;4.666;2023-08-17T03:45:17;2.42;;;1.35;;
38615;SDS011;24370;51.986;4.666;2023-08-17T03:47:43;1.83;;;1.20;;
38615;SDS011;24370;51.986;4.666;2023-08-17T03:50:09;2.05;;;1.40;;
38615;SDS011;24370;51.986;4.666;2023-08-17T03:52:35;3.92;;;0.93;;
38615;SDS011;24370;51.986;4.666;2023-08-17T03:55:01;1.30;;;1.20;;
38615;SDS011;24370;51.986;4.666;2023-08-17T03:57:26;2.55;;;1.30;;
38615;SDS011;24370;51.986;4.666;2023-08-17T03:59:52;4.63;;;1.15;;
38615;SDS011;24370;51.986;4.666;2023-08-17T04:02:17;3.10;;;1.25;;
38615;SDS011;24370;51.986;4.666;2023-08-17T04:04:42;5.35;;;1.25;;
38615;SDS011;24370;51.986;4.666;2023-08-17T04:07:08;5.53;;;1.38;;
38615;SDS011;24370;51.986;4.666;2023-08-17T04:09:33;5.03;;;1.02;;
38615;SDS011;24370;51.986;4.666;2023-08-17T04:12:00;3.25;;;1.20;;
38615;SDS011;24370;51.986;4.666;2023-08-17T04:14:25;2.00;;;0.90;;
38615;SDS011;24370;51.986;4.666;2023-08-17T04:16:51;2.20;;;0.95;;
38615;SDS011;24370;51.986;4.666;2023-08-17T04:19:17;0.70;;;0.70;;
38615;SDS011;24370;51.986;4.666;2023-08-17T04:21:42;7.05;;;1.10;;
38615;SDS011;24370;51.986;4.666;2023-08-17T04:24:07;3.83;;;1.13;;
38615;SDS011;24370;51.986;4.666;2023-08-17T04:26:33;2.95;;;1.10;;
38615;SDS011;24370;51.986;4.666;2023-08-17T04:28:58;1.08;;;1.00;;
38615;SDS011;24370;51.986;4.666;2023-08-17T04:31:24;4.38;;;1.80;;
38615;SDS011;24370;51.986;4.666;2023-08-17T04:33:49;1.65;;;1.13;;
38615;SDS011;24370;51.986;4.666;2023-08-17T04:36:15;1.80;;;0.80;;
38615;SDS011;24370;51.986;4.666;2023-08-17T04:38:40;4.43;;;1.00;;
38615;SDS011;24370;51.986;4.666;2023-08-17T04:41:06;0.80;;;0.80;;
38615;SDS011;24370;51.986;4.666;2023-08-17T04:43:31;4.38;;;0.93;;
38615;SDS011;24370;51.986;4.666;2023-08-17T04:45:56;3.95;;;1.00;;
38615;SDS011;24370;51.986;4.666;2023-08-17T04:48:22;0.95;;;0.90;;
38615;SDS011;24370;51.986;4.666;2023-08-17T04:50:48;2.05;;;0.90;;
38615;SDS011;24370;51.986;4.666;2023-08-17T04:53:13;1.60;;;0.90;;
38615;SDS011;24370;51.986;4.666;2023-08-17T04:55:39;8.50;;;1.20;;
38615;SDS011;24370;51.986;4.666;2023-08-17T04:58:04;6.45;;;1.52;;
38615;SDS011;24370;51.986;4.666;2023-08-17T05:00:30;3.42;;;0.90;;
38615;SDS011;24370;51.986;4.666;2023-08-17T05:02:56;1.33;;;0.70;;
38615;SDS011;24370;51.986;4.666;2023-08-17T05:05:21;2.80;;;1.40;;
38615;SDS011;24370;51.986;4.666;2023-08-17T05:07:47;2.13;;;0.80;;
38615;SDS011;24370;51.986;4.666;2023-08-17T05:10:13;3.03;;;1.00;;
38615;SDS011;24370;51.986;4.666;2023-08-17T05:12:38;3.13;;;1.30;;
38615;SDS011;24370;51.986;4.666;2023-08-17T05:15:04;4.05;;;0.90;;
38615;SDS011;24370;51.986;4.666;2023-08-17T05:17:30;4.60;;;1.30;;
38615;SDS011;24370;51.986;4.666;2023-08-17T05:19:55;3.40;;;0.70;;
38615;SDS011;24370;51.986;4.666;2023-08-17T05:22:21;3.08;;;1.00;;
38615;SDS011;24370;51.986;4.666;2023-08-17T05:24:46;2.35;;;0.65;;
38615;SDS011;24370;51.986;4.666;2023-08-17T05:27:12;1.92;;;1.35;;
38615;SDS011;24370;51.986;4.666;2023-08-17T05:29:37;0.82;;;0.70;;
38615;SDS011;24370;51.986;4.666;2023-08-17T05:32:03;1.58;;;0.80;;
38615;SDS011;24370;51.986;4.666;2023-08-17T05:34:28;3.30;;;0.90;;
38615;SDS011;24370;51.986;4.666;2023-08-17T05:36:54;1.75;;;0.75;;
38615;SDS011;24370;51.986;4.666;2023-08-17T05:39:19;1.10;;;0.85;;
38615;SDS011;24370;51.986;4.666;2023-08-17T05:41:45;0.80;;;0.68;;
38615;SDS011;24370;51.986;4.666;2023-08-17T05:44:10;1.42;;;0.93;;
38615;SDS011;24370;51.986;4.666;2023-08-17T05:46:36;2.72;;;0.90;;
38615;SDS011;24370;51.986;4.666;2023-08-17T05:49:01;5.50;;;1.20;;
38615;SDS011;24370;51.986;4.666;2023-08-17T05:51:28;2.15;;;0.90;;
38615;SDS011;24370;51.986;4.666;2023-08-17T05:53:53;2.72;;;0.95;;
38615;SDS011;24370;51.986;4.666;2023-08-17T05:56:19;2.08;;;0.77;;
38615;SDS011;24370;51.986;4.666;2023-08-17T05:58:44;3.42;;;0.95;;
38615;SDS011;24370;51.986;4.666;2023-08-17T06:01:10;1.48;;;0.80;;
38615;SDS011;24370;51.986;4.666;2023-08-17T06:03:36;1.55;;;1.00;;
38615;SDS011;24370;51.986;4.666;2023-08-17T06:06:03;2.65;;;0.82;;
38615;SDS011;24370;51.986;4.666;2023-08-17T06:08:30;6.22;;;1.15;;
38615;SDS011;24370;51.986;4.666;2023-08-17T06:10:56;1.08;;;0.80;;
38615;SDS011;24370;51.986;4.666;2023-08-17T06:13:21;3.63;;;1.10;;
38615;SDS011;24370;51.986;4.666;2023-08-17T06:15:47;1.27;;;0.90;;
38615;SDS011;24370;51.986;4.666;2023-08-17T06:18:12;2.60;;;0.93;;
38615;SDS011;24370;51.986;4.666;2023-08-17T06:20:38;2.28;;;1.20;;
38615;SDS011;24370;51.986;4.666;2023-08-17T06:23:04;4.15;;;1.00;;
38615;SDS011;24370;51.986;4.666;2023-08-17T06:25:29;1.60;;;0.93;;
38615;SDS011;24370;51.986;4.666;2023-08-17T06:27:54;8.80;;;1.08;;
38615;SDS011;24370;51.986;4.666;2023-08-17T06:30:20;2.95;;;0.70;;
38615;SDS011;24370;51.986;4.666;2023-08-17T06:32:46;5.22;;;1.25;;
38615;SDS011;24370;51.986;4.666;2023-08-17T06:35:11;4.55;;;1.55;;
38615;SDS011;24370;51.986;4.666;2023-08-17T06:37:37;1.83;;;0.82;;
38615;SDS011;24370;51.986;4.666;2023-08-17T06:40:06;1.73;;;0.70;;
38615;SDS011;24370;51.986;4.666;2023-08-17T06:42:32;2.30;;;0.85;;
38615;SDS011;24370;51.986;4.666;2023-08-17T06:44:57;3.25;;;0.95;;
38615;SDS011;24370;51.986;4.666;2023-08-17T06:47:23;2.88;;;0.80;;
38615;SDS011;24370;51.986;4.666;2023-08-17T06:49:48;1.13;;;0.93;;
38615;SDS011;24370;51.986;4.666;2023-08-17T06:52:14;3.25;;;1.00;;
38615;SDS011;24370;51.986;4.666;2023-08-17T06:54:39;3.35;;;0.93;;
38615;SDS011;24370;51.986;4.666;2023-08-17T06:57:05;1.92;;;1.10;;
38615;SDS011;24370;51.986;4.666;2023-08-17T06:59:30;2.58;;;1.40;;
38615;SDS011;24370;51.986;4.666;2023-08-17T07:01:58;2.08;;;1.10;;
38615;SDS011;24370;51.986;4.666;2023-08-17T07:04:25;3.47;;;1.00;;
38615;SDS011;24370;51.986;4.666;2023-08-17T07:06:50;1.83;;;1.00;;
38615;SDS011;24370;51.986;4.666;2023-08-17T07:09:16;5.88;;;1.08;;
38615;SDS011;24370;51.986;4.666;2023-08-17T07:11:42;3.83;;;1.35;;
38615;SDS011;24370;51.986;4.666;2023-08-17T07:14:07;5.50;;;1.08;;
38615;SDS011;24370;51.986;4.666;2023-08-17T07:16:33;2.15;;;0.75;;
38615;SDS011;24370;51.986;4.666;2023-08-17T07:18:58;4.53;;;0.80;;
38615;SDS011;24370;51.986;4.666;2023-08-17T07:21:23;1.60;;;1.08;;
38615;SDS011;24370;51.986;4.666;2023-08-17T07:23:50;2.22;;;1.10;;
38615;SDS011;24370;51.986;4.666;2023-08-17T07:26:16;2.53;;;0.93;;
38615;SDS011;24370;51.986;4.666;2023-08-17T07:28:44;0.90;;;0.90;;
38615;SDS011;24370;51.986;4.666;2023-08-17T07:31:09;5.18;;;0.93;;
38615;SDS011;24370;51.986;4.666;2023-08-17T07:33:35;2.45;;;0.90;;
38615;SDS011;24370;51.986;4.666;2023-08-17T07:36:01;1.13;;;0.80;;
38615;SDS011;24370;51.986;4.666;2023-08-17T07:38:26;2.17;;;1.30;;
38615;SDS011;24370;51.986;4.666;2023-08-17T07:40:51;1.25;;;0.90;;
38615;SDS011;24370;51.986;4.666;2023-08-17T07:43:17;1.30;;;0.77;;
38615;SDS011;24370;51.986;4.666;2023-08-17T07:45:42;5.22;;;1.10;;
38615;SDS011;24370;51.986;4.666;2023-08-17T07:48:08;1.48;;;1.10;;
38615;SDS011;24370;51.986;4.666;2023-08-17T07:50:33;2.95;;;1.08;;
38615;SDS011;24370;51.986;4.666;2023-08-17T07:52:58;3.25;;;1.00;;
38615;SDS011;24370;51.986;4.666;2023-08-17T07:55:25;2.55;;;0.70;;
38615;SDS011;24370;51.986;4.666;2023-08-17T07:57:51;2.45;;;0.80;;
38615;SDS011;24370;51.986;4.666;2023-08-17T08:00:16;3.88;;;1.23;;
38615;SDS011;24370;51.986;4.666;2023-08-17T08:02:42;1.85;;;1.00;;
38615;SDS011;24370;51.986;4.666;2023-08-17T08:05:07;1.95;;;0.73;;
38615;SDS011;24370;51.986;4.666;2023-08-17T08:07:33;5.28;;;1.10;;
38615;SDS011;24370;51.986;4.666;2023-08-17T08:09:58;1.42;;;0.77;;
38615;SDS011;24370;51.986;4.666;2023-08-17T08:12:24;0.85;;;0.60;;
38615;SDS011;24370;51.986;4.666;2023-08-17T08:14:49;2.35;;;0.80;;
38615;SDS011;24370;51.986;4.666;2023-08-17T08:17:16;0.88;;;0.73;;
38615;SDS011;24370;51.986;4.666;2023-08-17T08:19:41;3.58;;;0.90;;
38615;SDS011;24370;51.986;4.666;2023-08-17T08:22:07;4.07;;;0.90;;
38615;SDS011;24370;51.986;4.666;2023-08-17T08:24:32;4.50;;;0.95;;
38615;SDS011;24370;51.986;4.666;2023-08-17T08:27:00;1.45;;;0.80;;
38615;SDS011;24370;51.986;4.666;2023-08-17T08:29:26;3.63;;;0.73;;
38615;SDS011;24370;51.986;4.666;2023-08-17T08:31:52;1.70;;;0.63;;
38615;SDS011;24370;51.986;4.666;2023-08-17T08:34:18;2.42;;;0.98;;
38615;SDS011;24370;51.986;4.666;2023-08-17T08:36:43;1.77;;;0.80;;
38615;SDS011;24370;51.986;4.666;2023-08-17T08:39:09;2.15;;;1.25;;
38615;SDS011;24370;51.986;4.666;2023-08-17T08:41:35;1.35;;;0.95;;
38615;SDS011;24370;51.986;4.666;2023-08-17T08:44:02;6.80;;;0.98;;
38615;SDS011;24370;51.986;4.666;2023-08-17T08:46:29;1.35;;;0.75;;
38615;SDS011;24370;51.986;4.666;2023-08-17T08:48:55;3.33;;;0.80;;
38615;SDS011;24370;51.986;4.666;2023-08-17T08:51:27;1.38;;;0.70;;
38615;SDS011;24370;51.986;4.666;2023-08-17T08:54:03;1.48;;;0.52;;
38615;SDS011;24370;51.986;4.666;2023-08-17T08:56:33;1.55;;;1.23;;
38615;SDS011;24370;51.986;4.666;2023-08-17T08:59:02;2.45;;;1.02;;
38615;SDS011;24370;51.986;4.666;2023-08-17T09:01:32;3.13;;;1.02;;
38615;SDS011;24370;51.986;4.666;2023-08-17T09:03:59;2.83;;;1.17;;
38615;SDS011;24370;51.986;4.666;2023-08-17T09:06:29;1.58;;;1.02;;
38615;SDS011;24370;51.986;4.666;2023-08-17T09:08:56;7.85;;;0.60;;
38615;SDS011;24370;51.986;4.666;2023-08-17T09:11:22;1.60;;;0.70;;
38615;SDS011;24370;51.986;4.666;2023-08-17T09:13:48;2.33;;;0.77;;
38615;SDS011;24370;51.986;4.666;2023-08-17T09:16:13;2.03;;;1.02;;
38615;SDS011;24370;51.986;4.666;2023-08-17T09:18:39;4.82;;;0.90;;
38615;SDS011;24370;51.986;4.666;2023-08-17T09:21:05;1.25;;;0.80;;
38615;SDS011;24370;51.986;4.666;2023-08-17T09:23:31;3.15;;;0.75;;
38615;SDS011;24370;51.986;4.666;2023-08-17T09:25:56;3.22;;;0.80;;
38615;SDS011;24370;51.986;4.666;2023-08-17T09:28:25;4.38;;;0.82;;
38615;SDS011;24370;51.986;4.666;2023-08-17T09:33:17;0.93;;;0.73;;
38615;SDS011;24370;51.986;4.666;2023-08-17T09:35:43;7.25;;;1.15;;
38615;SDS011;24370;51.986;4.666;2023-08-17T09:38:09;5.95;;;1.17;;
38615;SDS011;24370;51.986;4.666;2023-08-17T09:40:34;3.15;;;0.80;;
38615;SDS011;24370;51.986;4.666;2023-08-17T09:43:01;3.33;;;1.25;;
38615;SDS011;24370;51.986;4.666;2023-08-17T09:45:28;4.40;;;1.08;;
38615;SDS011;24370;51.986;4.666;2023-08-17T09:47:54;2.85;;;1.38;;
38615;SDS011;24370;51.986;4.666;2023-08-17T09:50:23;2.15;;;0.98;;
38615;SDS011;24370;51.986;4.666;2023-08-17T09:52:52;4.50;;;1.10;;
38615;SDS011;24370;51.986;4.666;2023-08-17T09:55:18;2.08;;;1.15;;
38615;SDS011;24370;51.986;4.666;2023-08-17T09:57:45;4.00;;;1.30;;
38615;SDS011;24370;51.986;4.666;2023-08-17T10:00:12;5.88;;;1.85;;
38615;SDS011;24370;51.986;4.666;2023-08-17T10:02:38;4.30;;;1.73;;
38615;SDS011;24370;51.986;4.666;2023-08-17T10:05:04;1.98;;;0.90;;
38615;SDS011;24370;51.986;4.666;2023-08-17T10:07:30;3.85;;;1.13;;
38615;SDS011;24370;51.986;4.666;2023-08-17T10:10:02;1.95;;;1.23;;
38615;SDS011;24370;51.986;4.666;2023-08-17T10:12:31;3.15;;;1.23;;
38615;SDS011;24370;51.986;4.666;2023-08-17T10:15:06;3.05;;;1.02;;
38615;SDS011;24370;51.986;4.666;2023-08-17T10:17:37;3.10;;;1.23;;
38615;SDS011;24370;51.986;4.666;2023-08-17T10:20:16;2.20;;;0.95;;
38615;SDS011;24370;51.986;4.666;2023-08-17T10:23:00;2.45;;;1.00;;
38615;SDS011;24370;51.986;4.666;2023-08-17T10:25:49;2.13;;;1.15;;
38615;SDS011;24370;51.986;4.666;2023-08-17T10:28:15;3.28;;;1.00;;
38615;SDS011;24370;51.986;4.666;2023-08-17T10:30:41;4.95;;;0.90;;
38615;SDS011;24370;51.986;4.666;2023-08-17T10:33:08;1.85;;;1.00;;
38615;SDS011;24370;51.986;4.666;2023-08-17T10:35:38;5.10;;;1.63;;
38615;SDS011;24370;51.986;4.666;2023-08-17T10:38:05;2.90;;;1.55;;
38615;SDS011;24370;51.986;4.666;2023-08-17T10:40:35;5.40;;;1.13;;
38615;SDS011;24370;51.986;4.666;2023-08-17T10:43:02;6.93;;;1.92;;
38615;SDS011;24370;51.986;4.666;2023-08-17T10:50:33;3.95;;;1.17;;
38615;SDS011;24370;51.986;4.666;2023-08-17T10:53:04;5.53;;;1.48;;
38615;SDS011;24370;51.986;4.666;2023-08-17T10:55:44;2.60;;;1.10;;
38615;SDS011;24370;51.986;4.666;2023-08-17T10:58:14;3.17;;;0.98;;
38615;SDS011;24370;51.986;4.666;2023-08-17T11:00:39;2.97;;;0.80;;
38615;SDS011;24370;51.986;4.666;2023-08-17T11:03:08;2.42;;;0.93;;
38615;SDS011;24370;51.986;4.666;2023-08-17T11:08:12;4.10;;;0.90;;
38615;SDS011;24370;51.986;4.666;2023-08-17T11:10:48;1.85;;;0.93;;
38615;SDS011;24370;51.986;4.666;2023-08-17T11:13:27;2.45;;;1.40;;
38615;SDS011;24370;51.986;4.666;2023-08-17T11:15:54;4.03;;;1.05;;
38615;SDS011;24370;51.986;4.666;2023-08-17T11:18:20;0.95;;;0.95;;
38615;SDS011;24370;51.986;4.666;2023-08-17T11:20:45;2.95;;;1.02;;
38615;SDS011;24370;51.986;4.666;2023-08-17T11:23:13;2.78;;;1.30;;
38615;SDS011;24370;51.986;4.666;2023-08-17T11:25:39;3.53;;;1.00;;
38615;SDS011;24370;51.986;4.666;2023-08-17T11:28:06;2.92;;;1.73;;
38615;SDS011;24370;51.986;4.666;2023-08-17T11:30:33;3.30;;;1.35;;
38615;SDS011;24370;51.986;4.666;2023-08-17T11:33:02;2.15;;;0.93;;
38615;SDS011;24370;51.986;4.666;2023-08-17T11:35:28;3.45;;;1.30;;
38615;SDS011;24370;51.986;4.666;2023-08-17T11:37:54;5.43;;;1.10;;
38615;SDS011;24370;51.986;4.666;2023-08-17T11:40:19;3.38;;;1.10;;
38615;SDS011;24370;51.986;4.666;2023-08-17T11:42:45;6.55;;;1.17;;
38615;SDS011;24370;51.986;4.666;2023-08-17T11:45:11;3.83;;;1.30;;
38615;SDS011;24370;51.986;4.666;2023-08-17T11:47:37;2.85;;;1.30;;
38615;SDS011;24370;51.986;4.666;2023-08-17T11:50:04;2.03;;;1.60;;
38615;SDS011;24370;51.986;4.666;2023-08-17T11:52:34;3.28;;;1.27;;
38615;SDS011;24370;51.986;4.666;2023-08-17T11:55:03;5.18;;;1.40;;
38615;SDS011;24370;51.986;4.666;2023-08-17T11:57:37;1.75;;;1.30;;
38615;SDS011;24370;51.986;4.666;2023-08-17T12:00:03;2.17;;;1.10;;
38615;SDS011;24370;51.986;4.666;2023-08-17T12:02:37;2.22;;;1.17;;
38615;SDS011;24370;51.986;4.666;2023-08-17T12:05:07;5.13;;;1.23;;
38615;SDS011;24370;51.986;4.666;2023-08-17T12:07:36;3.22;;;1.38;;
38615;SDS011;24370;51.986;4.666;2023-08-17T12:10:02;3.17;;;1.30;;
38615;SDS011;24370;51.986;4.666;2023-08-17T12:12:29;3.90;;;1.90;;
38615;SDS011;24370;51.986;4.666;2023-08-17T12:14:55;2.58;;;1.20;;
38615;SDS011;24370;51.986;4.666;2023-08-17T12:17:22;2.22;;;1.38;;
38615;SDS011;24370;51.986;4.666;2023-08-17T12:19:53;2.17;;;1.23;;
38615;SDS011;24370;51.986;4.666;2023-08-17T12:24:48;2.55;;;1.80;;
38615;SDS011;24370;51.986;4.666;2023-08-17T12:27:14;4.80;;;1.42;;
38615;SDS011;24370;51.986;4.666;2023-08-17T12:29:49;1.33;;;1.17;;
38615;SDS011;24370;51.986;4.666;2023-08-17T12:32:18;1.48;;;1.20;;
38615;SDS011;24370;51.986;4.666;2023-08-17T12:34:45;3.63;;;2.05;;
38615;SDS011;24370;51.986;4.666;2023-08-17T12:37:11;3.33;;;1.60;;
38615;SDS011;24370;51.986;4.666;2023-08-17T12:39:38;4.22;;;1.60;;
38615;SDS011;24370;51.986;4.666;2023-08-17T12:42:06;2.65;;;1.20;;
38615;SDS011;24370;51.986;4.666;2023-08-17T12:44:32;1.50;;;1.30;;
38615;SDS011;24370;51.986;4.666;2023-08-17T12:46:58;3.85;;;1.80;;
38615;SDS011;24370;51.986;4.666;2023-08-17T12:49:24;3.45;;;2.10;;
38615;SDS011;24370;51.986;4.666;2023-08-17T12:51:49;4.13;;;1.40;;
38615;SDS011;24370;51.986;4.666;2023-08-17T12:54:15;4.13;;;1.90;;
38615;SDS011;24370;51.986;4.666;2023-08-17T12:56:40;1.88;;;1.67;;
38615;SDS011;24370;51.986;4.666;2023-08-17T12:59:05;5.22;;;1.63;;
38615;SDS011;24370;51.986;4.666;2023-08-17T13:01:31;2.30;;;1.70;;
38615;SDS011;24370;51.986;4.666;2023-08-17T13:03:56;2.83;;;1.45;;
38615;SDS011;24370;51.986;4.666;2023-08-17T13:06:22;3.47;;;1.50;;
38615;SDS011;24370;51.986;4.666;2023-08-17T13:08:47;6.38;;;2.03;;
38615;SDS011;24370;51.986;4.666;2023-08-17T13:11:13;4.47;;;1.60;;
38615;SDS011;24370;51.986;4.666;2023-08-17T13:13:38;6.53;;;1.70;;
38615;SDS011;24370;51.986;4.666;2023-08-17T13:16:04;2.88;;;1.92;;
38615;SDS011;24370;51.986;4.666;2023-08-17T13:18:29;2.33;;;1.40;;
38615;SDS011;24370;51.986;4.666;2023-08-17T13:20:55;2.65;;;1.80;;
38615;SDS011;24370;51.986;4.666;2023-08-17T13:23:20;4.85;;;1.77;;
38615;SDS011;24370;51.986;4.666;2023-08-17T13:25:46;7.38;;;1.77;;
38615;SDS011;24370;51.986;4.666;2023-08-17T13:28:11;2.70;;;1.63;;
38615;SDS011;24370;51.986;4.666;2023-08-17T13:30:37;2.58;;;1.63;;
38615;SDS011;24370;51.986;4.666;2023-08-17T13:33:03;6.07;;;2.08;;
38615;SDS011;24370;51.986;4.666;2023-08-17T13:35:29;2.30;;;1.85;;
38615;SDS011;24370;51.986;4.666;2023-08-17T13:37:54;3.83;;;1.80;;
38615;SDS011;24370;51.986;4.666;2023-08-17T13:40:20;2.60;;;1.92;;
38615;SDS011;24370;51.986;4.666;2023-08-17T13:42:45;2.80;;;1.45;;
38615;SDS011;24370;51.986;4.666;2023-08-17T13:45:11;2.75;;;1.95;;
38615;SDS011;24370;51.986;4.666;2023-08-17T13:47:37;3.50;;;1.50;;
38615;SDS011;24370;51.986;4.666;2023-08-17T13:50:02;2.35;;;1.48;;
38615;SDS011;24370;51.986;4.666;2023-08-17T13:52:28;3.05;;;1.40;;
38615;SDS011;24370;51.986;4.666;2023-08-17T13:54:54;4.72;;;1.73;;
38615;SDS011;24370;51.986;4.666;2023-08-17T13:57:19;5.72;;;2.00;;
38615;SDS011;24370;51.986;4.666;2023-08-17T13:59:45;4.80;;;1.70;;
38615;SDS011;24370;51.986;4.666;2023-08-17T14:02:10;3.65;;;1.55;;
38615;SDS011;24370;51.986;4.666;2023-08-17T14:04:36;4.30;;;2.03;;
38615;SDS011;24370;51.986;4.666;2023-08-17T14:07:01;5.00;;;1.90;;
38615;SDS011;24370;51.986;4.666;2023-08-17T14:09:27;4.82;;;2.00;;
38615;SDS011;24370;51.986;4.666;2023-08-17T14:11:52;3.75;;;1.70;;
38615;SDS011;24370;51.986;4.666;2023-08-17T14:14:18;3.88;;;2.47;;
38615;SDS011;24370;51.986;4.666;2023-08-17T14:16:43;4.25;;;2.40;;
38615;SDS011;24370;51.986;4.666;2023-08-17T14:19:09;3.58;;;1.70;;
38615;SDS011;24370;51.986;4.666;2023-08-17T14:21:35;3.63;;;1.70;;
38615;SDS011;24370;51.986;4.666;2023-08-17T14:24:00;4.25;;;1.90;;
38615;SDS011;24370;51.986;4.666;2023-08-17T14:26:26;4.20;;;2.10;;
38615;SDS011;24370;51.986;4.666;2023-08-17T14:28:51;5.55;;;2.05;;
38615;SDS011;24370;51.986;4.666;2023-08-17T14:31:16;5.00;;;1.92;;
38615;SDS011;24370;51.986;4.666;2023-08-17T14:33:43;6.85;;;2.25;;
38615;SDS011;24370;51.986;4.666;2023-08-17T14:36:13;6.45;;;2.05;;
38615;SDS011;24370;51.986;4.666;2023-08-17T14:38:39;3.78;;;1.90;;
38615;SDS011;24370;51.986;4.666;2023-08-17T14:41:04;4.05;;;1.92;;
38615;SDS011;24370;51.986;4.666;2023-08-17T14:43:31;8.15;;;1.90;;
38615;SDS011;24370;51.986;4.666;2023-08-17T14:45:57;2.00;;;1.60;;
38615;SDS011;24370;51.986;4.666;2023-08-17T14:48:23;4.22;;;2.28;;
38615;SDS011;24370;51.986;4.666;2023-08-17T14:50:48;6.95;;;2.33;;
38615;SDS011;24370;51.986;4.666;2023-08-17T14:53:14;2.40;;;1.92;;
38615;SDS011;24370;51.986;4.666;2023-08-17T14:55:39;3.53;;;1.90;;
38615;SDS011;24370;51.986;4.666;2023-08-17T14:58:05;4.75;;;2.00;;